createdAt,value
2022-08-29T00:00:40.898Z,103.32
2022-08-29T00:03:30.960Z,99.82
2022-08-29T00:06:19.512Z,99.68
2022-08-29T00:09:08.073Z,97.68
2022-08-29T00:11:56.509Z,98.57
2022-08-29T00:14:44.827Z,98.28
2022-08-29T00:17:33.917Z,96.68
2022-08-29T00:20:30.335Z,96.97
2022-08-29T00:23:22.823Z,96.13
2022-08-29T00:26:11.240Z,98.22
2022-08-29T00:28:59.569Z,94.97
2022-08-29T00:31:49.039Z,96.20
2022-08-29T00:34:37.450Z,95.80
2022-08-29T00:37:27.244Z,95.15
2022-08-29T00:40:20.659Z,95.82
2022-08-29T00:43:10.532Z,95.60
2022-08-29T00:46:06.947Z,95.13
2022-08-29T00:48:58.032Z,94.80
2022-08-29T00:51:48.170Z,94.95
2022-08-29T00:54:38.243Z,94.90
2022-08-29T00:57:30.440Z,90.75
2022-08-29T01:00:19.537Z,89.68
2022-08-29T01:03:08.898Z,89.45
2022-08-29T01:05:57.399Z,89.13
2022-08-29T01:08:46.026Z,87.88
2022-08-29T01:11:53.591Z,87.05
2022-08-29T01:14:48.290Z,87.47
2022-08-29T01:17:44.274Z,88.18
2022-08-29T01:20:40.366Z,85.80
2022-08-29T01:23:33.770Z,85.93
2022-08-29T01:26:24.308Z,85.63
2022-08-29T01:29:13.001Z,86.63
2022-08-29T01:32:02.180Z,85.20
2022-08-29T01:34:50.679Z,86.30
2022-08-29T01:37:43.643Z,85.90
2022-08-29T01:40:32.167Z,87.20
2022-08-29T01:43:23.202Z,87.32
2022-08-29T01:46:13.224Z,84.82
2022-08-29T01:49:03.782Z,84.85
2022-08-29T01:51:52.744Z,85.10
2022-08-29T01:54:42.255Z,84.68
2022-08-29T01:57:30.602Z,83.35
2022-08-29T02:00:20.476Z,83.65
2022-08-29T02:03:08.863Z,81.35
2022-08-29T02:05:58.801Z,79.88
2022-08-29T02:08:47.469Z,80.43
2022-08-29T02:11:36.581Z,80.50
2022-08-29T02:14:26.475Z,80.75
2022-08-29T02:17:17.445Z,79.63
2022-08-29T02:20:09.259Z,79.32
2022-08-29T02:22:57.539Z,78.65
2022-08-29T02:25:47.682Z,78.85
2022-08-29T02:28:38.498Z,79.03
2022-08-29T02:31:26.924Z,79.43
2022-08-29T02:34:16.769Z,78.43
2022-08-29T02:37:06.046Z,77.85
2022-08-29T02:39:54.835Z,78.30
2022-08-29T02:42:43.167Z,78.78
2022-08-29T02:45:32.000Z,77.22
2022-08-29T02:48:21.295Z,79.28
2022-08-29T02:51:11.056Z,78.85
2022-08-29T02:54:00.481Z,78.72
2022-08-29T02:56:48.788Z,78.90
2022-08-29T02:59:37.300Z,78.60
2022-08-29T03:02:25.960Z,77.35
2022-08-29T03:05:15.176Z,77.15
2022-08-29T03:08:07.990Z,77.53
2022-08-29T03:10:56.608Z,77.30
2022-08-29T03:13:45.370Z,77.47
2022-08-29T03:16:34.279Z,75.05
2022-08-29T03:19:23.015Z,76.03
2022-08-29T03:22:11.394Z,75.68
2022-08-29T03:25:03.257Z,76.60
2022-08-29T03:27:52.950Z,77.60
2022-08-29T03:30:41.439Z,80.13
2022-08-29T03:33:29.732Z,81.68
2022-08-29T03:36:18.224Z,84.55
2022-08-29T03:39:06.509Z,85.50
2022-08-29T03:41:56.247Z,87.63
2022-08-29T03:44:44.677Z,90.75
2022-08-29T03:47:33.108Z,91.43
2022-08-29T03:50:24.599Z,92.68
2022-08-29T03:53:13.046Z,91.45
2022-08-29T03:56:01.450Z,94.07
2022-08-29T03:58:53.349Z,94.10
2022-08-29T04:01:41.980Z,94.20
2022-08-29T04:04:47.705Z,93.40
2022-08-29T04:07:40.238Z,95.22
2022-08-29T04:10:31.075Z,97.18
2022-08-29T04:13:19.552Z,97.05
2022-08-29T04:16:12.574Z,96.28
2022-08-29T04:19:00.972Z,96.70
2022-08-29T04:21:50.273Z,96.95
2022-08-29T04:24:38.765Z,100.60
2022-08-29T04:27:30.200Z,99.65
2022-08-29T04:30:21.786Z,102.05
2022-08-29T04:33:22.216Z,100.22
2022-08-29T04:36:14.867Z,100.72
2022-08-29T04:39:03.969Z,100.30
2022-08-29T04:41:52.754Z,100.32
2022-08-29T04:44:41.192Z,100.88
2022-08-29T04:47:29.595Z,103.18
2022-08-29T04:50:22.900Z,101.68
2022-08-29T04:53:12.767Z,102.45
2022-08-29T04:56:03.965Z,100.97
2022-08-29T04:58:52.723Z,100.85
2022-08-29T05:01:42.408Z,99.78
2022-08-29T05:04:30.845Z,98.80
2022-08-29T05:07:21.905Z,100.60
2022-08-29T05:10:13.611Z,99.90
2022-08-29T05:13:02.031Z,100.13
2022-08-29T05:15:50.987Z,99.38
2022-08-29T05:18:40.274Z,97.93
2022-08-29T05:21:34.053Z,97.57
2022-08-29T05:24:25.079Z,95.95
2022-08-29T05:27:17.847Z,93.35
2022-08-29T05:30:07.391Z,95.90
2022-08-29T05:32:55.850Z,96.28
2022-08-29T05:35:45.125Z,96.72
2022-08-29T05:38:33.536Z,96.43
2022-08-29T05:41:23.345Z,96.25
2022-08-29T05:44:11.678Z,95.45
2022-08-29T05:47:00.688Z,94.13
2022-08-29T05:49:50.523Z,98.05
2022-08-29T05:52:39.187Z,97.25
2022-08-29T05:55:27.493Z,95.05
2022-08-29T05:58:18.421Z,96.50
2022-08-29T06:01:07.121Z,92.93
2022-08-29T06:03:56.182Z,95.43
2022-08-29T06:06:44.691Z,93.32
2022-08-29T06:09:33.369Z,91.65
2022-08-29T06:12:21.837Z,90.47
2022-08-29T06:15:14.313Z,91.70
2022-08-29T06:18:06.187Z,92.80
2022-08-29T06:20:54.537Z,92.72
2022-08-29T06:23:44.577Z,94.53
2022-08-29T06:26:32.992Z,94.00
2022-08-29T06:29:21.307Z,90.63
2022-08-29T06:32:11.085Z,91.90
2022-08-29T06:34:59.534Z,91.22
2022-08-29T06:37:47.966Z,94.15
2022-08-29T06:40:36.444Z,94.45
2022-08-29T06:43:24.825Z,94.72
2022-08-29T06:46:23.528Z,94.10
2022-08-29T06:49:16.059Z,94.25
2022-08-29T06:52:04.844Z,89.63
2022-08-29T06:54:53.203Z,86.85
2022-08-29T06:57:45.514Z,86.10
2022-08-29T07:00:34.086Z,81.30
2022-08-29T07:03:24.157Z,77.53
2022-08-29T07:06:14.980Z,72.60
2022-08-29T07:09:03.459Z,63.72
2022-08-29T07:11:54.012Z,56.58
2022-08-29T07:14:43.575Z,52.78
2022-08-29T07:17:32.369Z,47.67
2022-08-29T07:20:20.826Z,44.92
2022-08-29T07:23:11.157Z,42.58
2022-08-29T07:26:08.379Z,39.83
2022-08-29T07:28:59.626Z,35.92
2022-08-29T07:31:49.052Z,36.10
2022-08-29T07:34:37.480Z,35.63
2022-08-29T07:37:26.025Z,33.83
2022-08-29T07:40:17.833Z,33.08
2022-08-29T07:43:06.430Z,30.63
2022-08-29T07:45:55.702Z,27.85
2022-08-29T07:48:46.554Z,27.88
2022-08-29T07:51:35.510Z,27.85
2022-08-29T07:54:24.421Z,28.20
2022-08-29T07:57:17.712Z,24.73
2022-08-29T08:00:08.804Z,22.60
2022-08-29T08:03:00.637Z,21.33
2022-08-29T08:05:48.914Z,19.48
2022-08-29T08:08:39.917Z,19.40
2022-08-29T08:11:28.510Z,16.77
2022-08-29T08:14:18.758Z,17.05
2022-08-29T08:17:07.210Z,16.00
2022-08-29T08:19:55.671Z,15.85
2022-08-29T08:22:44.086Z,15.00
2022-08-29T08:25:32.386Z,12.93
2022-08-29T08:28:20.919Z,11.48
2022-08-29T08:31:14.113Z,10.60
2022-08-29T08:34:02.808Z,11.65
2022-08-29T08:36:52.229Z,11.70
2022-08-29T08:39:40.936Z,11.90
2022-08-29T08:42:42.724Z,10.00
2022-08-29T08:45:37.675Z,9.30
2022-08-29T08:48:35.142Z,8.85
2022-08-29T08:51:29.943Z,10.20
2022-08-29T08:54:23.265Z,8.40
2022-08-29T08:57:14.204Z,7.78
2022-08-29T09:00:04.214Z,8.07
2022-08-29T09:03:06.745Z,7.65
2022-08-29T09:06:08.685Z,7.72
2022-08-29T09:09:03.192Z,7.40
2022-08-29T09:12:04.837Z,7.53
2022-08-29T09:15:02.534Z,7.90
2022-08-29T09:17:56.307Z,7.60
2022-08-29T09:20:47.250Z,7.65
2022-08-29T09:23:44.249Z,8.43
2022-08-29T09:26:33.285Z,7.15
2022-08-29T09:29:22.027Z,6.35
2022-08-29T09:32:16.518Z,5.57
2022-08-29T09:35:20.420Z,6.38
2022-08-29T09:38:10.793Z,5.88
2022-08-29T09:41:02.064Z,5.93
2022-08-29T09:43:52.594Z,6.60
2022-08-29T09:46:41.021Z,6.50
2022-08-29T09:49:30.681Z,6.53
2022-08-29T09:52:25.997Z,6.20
2022-08-29T09:55:20.855Z,5.40
2022-08-29T09:58:27.868Z,6.13
2022-08-29T10:01:26.966Z,6.32
2022-08-29T10:04:38.120Z,6.03
2022-08-29T10:07:30.024Z,5.50
2022-08-29T10:10:20.759Z,5.53
2022-08-29T10:13:17.006Z,6.82
2022-08-29T10:16:16.700Z,7.07
2022-08-29T10:19:08.054Z,6.57
2022-08-29T10:22:04.020Z,8.05
2022-08-29T10:24:58.567Z,6.97
2022-08-29T10:27:54.247Z,7.68
2022-08-29T10:30:55.668Z,7.10
2022-08-29T10:34:03.767Z,7.43
2022-08-29T10:36:58.035Z,7.60
2022-08-29T10:39:58.594Z,6.85
2022-08-29T10:42:51.354Z,6.60
2022-08-29T10:45:56.520Z,6.85
2022-08-29T10:48:52.736Z,6.15
2022-08-29T10:51:48.662Z,6.70
2022-08-29T10:54:46.775Z,7.65
2022-08-29T10:57:56.424Z,7.07
2022-08-29T11:00:49.038Z,6.47
2022-08-29T11:03:43.867Z,6.90
2022-08-29T11:09:35.426Z,7.70
2022-08-29T11:12:33.426Z,7.13
2022-08-29T11:15:27.611Z,7.93
2022-08-29T11:18:25.611Z,7.47
2022-08-29T11:21:20.441Z,8.65
2022-08-29T11:24:11.237Z,9.02
2022-08-29T11:27:09.378Z,8.15
2022-08-29T11:30:04.646Z,9.23
2022-08-29T11:33:03.997Z,8.80
2022-08-29T11:36:08.946Z,7.25
2022-08-29T11:39:40.302Z,6.60
2022-08-29T11:42:50.157Z,6.88
2022-08-29T11:45:44.399Z,6.35
2022-08-29T11:48:37.754Z,6.55
2022-08-29T11:51:37.293Z,5.50
2022-08-29T11:54:51.538Z,6.13
2022-08-29T11:57:52.591Z,5.95
2022-08-29T12:00:51.353Z,6.47
2022-08-29T12:03:48.826Z,6.75
2022-08-29T12:07:01.196Z,7.85
2022-08-29T12:09:54.623Z,7.15
2022-08-29T12:12:48.169Z,7.28
2022-08-29T12:15:57.822Z,6.10
2022-08-29T12:18:50.854Z,6.30
2022-08-29T12:21:47.314Z,5.80
2022-08-29T12:24:44.235Z,6.30
2022-08-29T12:28:32.286Z,6.35
2022-08-29T12:32:18.702Z,6.97
2022-08-29T12:35:31.836Z,6.47
2022-08-29T12:38:31.583Z,8.27
2022-08-29T12:41:39.216Z,7.35
2022-08-29T12:44:30.265Z,8.38
2022-08-29T12:47:27.716Z,8.07
2022-08-29T12:50:20.346Z,7.70
2022-08-29T12:53:20.144Z,7.32
2022-08-29T12:56:18.827Z,8.60
2022-08-29T12:59:07.442Z,7.78
2022-08-29T13:01:58.253Z,7.65
2022-08-29T13:04:47.939Z,7.88
2022-08-29T13:07:36.305Z,8.13
2022-08-29T13:10:25.477Z,7.43
2022-08-29T13:13:16.810Z,7.78
2022-08-29T13:16:09.725Z,8.32
2022-08-29T13:19:10.833Z,8.60
2022-08-29T13:22:05.559Z,8.27
2022-08-29T13:25:04.007Z,8.43
2022-08-29T13:28:01.599Z,7.43
2022-08-29T13:31:30.679Z,7.93
2022-08-29T13:34:21.203Z,8.38
2022-08-29T13:37:30.219Z,8.05
2022-08-29T13:40:36.859Z,8.52
2022-08-29T13:43:37.590Z,7.65
2022-08-29T13:46:30.434Z,7.05
2022-08-29T13:49:21.594Z,7.32
2022-08-29T13:52:15.277Z,7.18
2022-08-29T13:55:04.442Z,7.68
2022-08-29T13:57:56.026Z,7.35
2022-08-29T14:00:44.863Z,6.68
2022-08-29T14:03:35.098Z,6.47
2022-08-29T14:06:26.080Z,7.00
2022-08-29T14:09:23.008Z,6.32
2022-08-29T14:12:12.642Z,6.53
2022-08-29T14:15:05.386Z,6.43
2022-08-29T14:17:57.765Z,6.97
2022-08-29T14:20:46.622Z,7.00
2022-08-29T14:23:35.631Z,6.18
2022-08-29T14:26:25.690Z,6.05
2022-08-29T14:29:14.474Z,6.47
2022-08-29T14:32:03.529Z,6.15
2022-08-29T14:34:52.506Z,6.65
2022-08-29T14:37:41.974Z,6.70
2022-08-29T14:40:31.164Z,5.75
2022-08-29T14:43:21.551Z,6.60
2022-08-29T14:46:09.935Z,5.90
2022-08-29T14:48:58.614Z,6.38
2022-08-29T14:51:47.021Z,6.38
2022-08-29T14:54:35.509Z,6.47
2022-08-29T14:57:23.966Z,6.20
2022-08-29T15:00:19.984Z,6.03
2022-08-29T15:03:08.491Z,5.43
2022-08-29T15:05:57.011Z,5.47
2022-08-29T15:08:45.459Z,5.93
2022-08-29T15:11:34.060Z,6.03
2022-08-29T15:14:22.507Z,5.90
2022-08-29T15:17:13.689Z,5.93
2022-08-29T15:23:10.683Z,5.80
2022-08-29T15:26:02.794Z,5.30
2022-08-29T15:28:51.448Z,6.10
2022-08-29T15:31:40.299Z,5.80
2022-08-29T15:34:31.445Z,6.22
2022-08-29T15:37:20.301Z,5.50
2022-08-29T15:40:13.122Z,6.45
2022-08-29T15:43:02.156Z,6.15
2022-08-29T15:45:50.618Z,5.70
2022-08-29T15:48:39.334Z,6.00
2022-08-29T15:51:31.388Z,6.18
2022-08-29T15:54:20.346Z,5.75
2022-08-29T15:57:08.959Z,6.18
2022-08-29T15:59:58.648Z,5.57
2022-08-29T16:02:47.915Z,5.47
2022-08-29T16:05:38.356Z,5.47
2022-08-29T16:08:29.733Z,5.95
2022-08-29T16:11:18.418Z,5.20
2022-08-29T16:14:41.093Z,6.03
2022-08-29T16:17:16.196Z,6.15
2022-08-29T16:20:07.649Z,5.22
2022-08-29T16:22:56.476Z,5.65
2022-08-29T16:25:46.421Z,4.80
2022-08-29T16:28:35.109Z,5.40
2022-08-29T16:31:23.758Z,5.22
2022-08-29T16:34:12.304Z,5.35
2022-08-29T16:37:02.765Z,4.90
2022-08-29T16:39:51.420Z,5.20
2022-08-29T16:42:43.210Z,5.90
2022-08-29T16:45:44.371Z,4.97
2022-08-29T16:48:34.533Z,5.40
2022-08-29T16:51:26.539Z,4.65
2022-08-29T16:54:22.180Z,5.32
2022-08-29T16:57:10.791Z,5.28
2022-08-29T17:00:02.043Z,5.00
2022-08-29T17:02:50.750Z,5.30
2022-08-29T17:05:39.435Z,5.10
2022-08-29T17:08:27.282Z,5.82
2022-08-29T17:11:14.558Z,5.82
2022-08-29T17:14:02.050Z,5.50
2022-08-29T17:16:53.945Z,5.45
2022-08-29T17:19:44.724Z,5.85
2022-08-29T17:22:34.338Z,6.03
2022-08-29T17:25:24.854Z,5.38
2022-08-29T17:28:19.042Z,5.63
2022-08-29T17:31:10.552Z,5.75
2022-08-29T17:34:00.748Z,5.65
2022-08-29T17:36:50.264Z,5.85
2022-08-29T17:39:40.131Z,5.82
2022-08-29T17:42:29.032Z,5.85
2022-08-29T17:45:17.911Z,6.55
2022-08-29T17:48:06.374Z,5.97
2022-08-29T17:50:57.389Z,5.82
2022-08-29T17:53:45.959Z,5.57
2022-08-29T17:56:44.443Z,5.07
2022-08-29T17:59:36.032Z,4.70
2022-08-29T18:02:24.470Z,5.63
2022-08-29T18:05:13.737Z,6.70
2022-08-29T18:08:03.686Z,6.50
2022-08-29T18:10:52.313Z,5.50
2022-08-29T18:13:42.025Z,6.03
2022-08-29T18:16:30.409Z,5.30
2022-08-29T18:19:19.238Z,6.05
2022-08-29T18:22:08.013Z,6.22
2022-08-29T18:24:59.005Z,6.18
2022-08-29T18:27:48.537Z,6.18
2022-08-29T18:30:37.266Z,6.07
2022-08-29T18:33:38.744Z,6.50
2022-08-29T18:36:35.556Z,6.50
2022-08-29T18:39:24.077Z,6.43
2022-08-29T18:42:36.792Z,6.55
2022-08-29T18:45:22.747Z,6.28
2022-08-29T18:48:11.064Z,6.95
2022-08-29T18:51:00.601Z,7.20
2022-08-29T18:53:49.252Z,7.38
2022-08-29T18:56:38.016Z,8.27
2022-08-29T18:59:29.652Z,7.55
2022-08-29T19:02:18.230Z,8.10
2022-08-29T19:05:07.666Z,7.97
2022-08-29T19:07:57.622Z,8.55
2022-08-29T19:10:47.616Z,9.77
2022-08-29T19:13:36.720Z,9.45
2022-08-29T19:16:26.530Z,9.40
2022-08-29T19:19:15.095Z,9.20
2022-08-29T19:22:02.592Z,9.52
2022-08-29T19:24:51.090Z,10.43
2022-08-29T19:27:43.611Z,10.43
2022-08-29T19:30:33.388Z,11.38
2022-08-29T19:33:23.590Z,10.38
2022-08-29T19:36:12.450Z,9.93
2022-08-29T19:39:00.914Z,10.00
2022-08-29T19:41:54.657Z,9.52
2022-08-29T19:44:44.172Z,9.98
2022-08-29T19:47:33.355Z,8.95
2022-08-29T19:50:24.907Z,8.85
2022-08-29T19:53:16.985Z,8.20
2022-08-29T19:56:14.737Z,8.50
2022-08-29T19:59:03.294Z,8.73
2022-08-29T20:01:52.114Z,8.00
2022-08-29T20:04:40.513Z,8.57
2022-08-29T20:07:30.533Z,8.48
2022-08-29T20:10:22.911Z,8.77
2022-08-29T20:13:11.245Z,8.07
2022-08-29T20:16:00.610Z,7.75
2022-08-29T20:18:49.380Z,8.68
2022-08-29T20:21:40.069Z,8.30
2022-08-29T20:24:30.573Z,8.00
2022-08-29T20:27:18.934Z,8.05
2022-08-29T20:30:10.028Z,9.20
2022-08-29T20:32:58.604Z,10.48
2022-08-29T20:36:05.423Z,9.27
2022-08-29T20:38:54.373Z,9.60
2022-08-29T20:41:49.184Z,9.68
2022-08-29T20:44:41.853Z,9.02
2022-08-29T20:47:30.673Z,9.18
2022-08-29T20:50:19.091Z,9.98
2022-08-29T20:53:08.468Z,10.90
2022-08-29T20:56:01.290Z,10.48
2022-08-29T20:58:51.067Z,11.20
2022-08-29T21:01:40.453Z,10.95
2022-08-29T21:04:46.590Z,11.82
2022-08-29T21:07:37.779Z,12.40
2022-08-29T21:10:26.250Z,11.90
2022-08-29T21:13:15.266Z,11.85
2022-08-29T21:16:07.448Z,12.15
2022-08-29T21:18:56.346Z,12.35
2022-08-29T21:21:44.737Z,13.38
2022-08-29T21:24:35.882Z,12.52
2022-08-29T21:27:24.551Z,14.13
2022-08-29T21:30:14.515Z,14.75
2022-08-29T21:33:04.814Z,15.27
2022-08-29T21:35:53.167Z,15.95
2022-08-29T21:38:41.600Z,16.33
2022-08-29T21:41:31.561Z,16.13
2022-08-29T21:44:20.217Z,17.50
2022-08-29T21:47:08.712Z,18.65
2022-08-29T21:49:58.569Z,18.35
2022-08-29T21:52:48.419Z,18.08
2022-08-29T21:55:36.712Z,17.67
2022-08-29T21:58:25.120Z,16.95
2022-08-29T22:01:14.096Z,15.52
2022-08-29T22:04:03.493Z,16.13
2022-08-29T22:06:54.164Z,15.52
2022-08-29T22:09:42.501Z,14.68
2022-08-29T22:12:31.464Z,15.57
2022-08-29T22:15:37.641Z,16.73
2022-08-29T22:18:26.180Z,16.40
2022-08-29T22:21:15.559Z,15.20
2022-08-29T22:24:06.878Z,15.93
2022-08-29T22:26:55.266Z,16.40
2022-08-29T22:29:43.862Z,15.85
2022-08-29T22:32:32.348Z,17.30
2022-08-29T22:35:24.756Z,18.88
2022-08-29T22:38:13.212Z,18.93
2022-08-29T22:41:03.014Z,19.50
2022-08-29T22:44:16.619Z,20.13
2022-08-29T22:47:01.303Z,20.40
2022-08-29T22:49:50.721Z,21.27
2022-08-29T22:52:39.099Z,22.20
2022-08-29T22:58:16.170Z,22.57
2022-08-29T23:01:07.140Z,23.23
2022-08-29T23:03:56.899Z,23.27
2022-08-29T23:06:45.525Z,23.80
2022-08-29T23:09:35.061Z,24.80
2022-08-29T23:12:23.924Z,24.17
2022-08-29T23:15:17.330Z,25.23
2022-08-29T23:18:05.675Z,25.30
2022-08-29T23:20:54.372Z,25.43
2022-08-29T23:23:45.314Z,26.23
2022-08-29T23:26:34.588Z,27.73
2022-08-29T23:29:24.046Z,26.00
2022-08-29T23:32:13.680Z,25.93
2022-08-29T23:35:02.065Z,26.93
2022-08-29T23:37:50.386Z,24.80
2022-08-29T23:40:38.780Z,23.17
2022-08-29T23:43:27.938Z,22.93
2022-08-29T23:46:19.268Z,23.27
2022-08-29T23:49:09.054Z,22.93
2022-08-29T23:51:57.683Z,21.67
2022-08-29T23:54:47.868Z,21.07
2022-08-29T23:57:36.380Z,21.90
